Time,TemperatureF,DewpointF,PressureIn,WindDirection,WindDirectionDegrees,WindSpeedMPH,WindSpeedGustMPH,Humidity,HourlyPrecipIn,Conditions,Clouds,dailyrainin,SoftwareType,DateUTC
2012-08-07 05:45:00,54.9,45.7,29.89,SSW,202,0.0,0.0,71,0.00,,---,0.00,VWS V14.01,2012-08-07 11:45:00,
2012-08-07 05:56:00,55.0,45.8,29.89,SSW,198,0.0,0.0,71,0.00,,---,0.00,VWS V14.01,2012-08-07 11:56:00,
2012-08-07 06:01:00,55.2,46.0,29.89,SSW,198,0.0,0.0,71,0.00,,---,0.00,VWS V14.01,2012-08-07 12:01:00,
2012-08-07 06:06:00,55.3,46.1,29.91,SSW,198,0.0,0.0,71,0.00,,---,0.00,VWS V14.01,2012-08-07 12:06:00,
2012-08-07 06:11:00,55.4,45.8,29.91,SSW,198,0.0,0.0,70,0.00,,---,0.00,VWS V14.01,2012-08-07 12:11:00,
2012-08-07 06:16:00,55.5,45.9,29.91,SSW,198,0.0,0.0,70,0.00,,---,0.00,VWS V14.01,2012-08-07 12:16:00,
2012-08-07 06:21:00,55.4,45.8,29.91,SSW,198,0.0,0.0,70,0.00,,---,0.00,VWS V14.01,2012-08-07 12:21:00,
2012-08-07 06:26:00,55.3,45.3,29.91,SSW,198,0.0,1.0,69,0.00,,---,0.00,VWS V14.01,2012-08-07 12:26:00,
2012-08-07 06:31:00,55.2,45.6,29.91,SSW,198,0.0,0.0,70,0.00,,---,0.00,VWS V14.01,2012-08-07 12:31:00,
2012-08-07 06:36:00,55.1,45.5,29.91,SSW,198,0.0,1.0,70,0.00,,---,0.00,VWS V14.01,2012-08-07 12:36:00,
2012-08-07 06:41:00,55.1,45.5,29.91,SSW,198,0.0,1.0,70,0.00,,---,0.00,VWS V14.01,2012-08-07 12:41:00,
2012-08-07 06:47:00,55.1,45.5,29.91,SSW,198,0.0,0.0,70,0.00,,---,0.00,VWS V14.01,2012-08-07 12:47:00,
2012-08-07 06:52:00,55.2,45.6,29.91,SSW,198,0.0,0.0,70,0.00,,---,0.00,VWS V14.01,2012-08-07 12:52:00,
2012-08-07 06:57:00,55.4,45.4,29.91,SSW,198,0.0,2.0,69,0.00,,---,0.00,VWS V14.01,2012-08-07 12:57:00,
2012-08-07 07:02:00,55.6,45.6,29.91,SSW,198,0.0,1.0,69,0.00,,---,0.00,VWS V14.01,2012-08-07 13:02:00,
2012-08-07 07:07:00,55.9,45.9,29.93,SSW,198,0.0,0.0,69,0.00,,---,0.00,VWS V14.01,2012-08-07 13:07:00,
2012-08-07 07:12:00,56.2,45.8,29.93,SSW,198,0.0,0.0,68,0.00,,---,0.00,VWS V14.01,2012-08-07 13:12:00,
2012-08-07 07:17:00,56.4,46.0,29.93,SSW,198,0.0,0.0,68,0.00,,---,0.00,VWS V14.01,2012-08-07 13:17:00,
2012-08-07 07:22:00,56.7,46.3,29.93,SSW,198,0.0,0.0,68,0.00,,---,0.00,VWS V14.01,2012-08-07 13:22:00,
2012-08-07 07:27:00,57.0,46.2,29.93,SSW,198,0.0,0.0,67,0.00,,---,0.00,VWS V14.01,2012-08-07 13:27:00,
2012-08-07 07:32:00,57.4,46.5,29.93,SSW,198,0.0,0.0,67,0.00,,---,0.00,VWS V14.01,2012-08-07 13:32:00,
2012-08-07 07:37:00,57.7,46.8,29.92,SSW,198,0.0,0.0,67,0.00,,---,0.00,VWS V14.01,2012-08-07 13:37:00,
2012-08-07 07:42:00,58.0,47.1,29.92,SSW,198,0.0,0.0,67,0.00,,---,0.00,VWS V14.01,2012-08-07 13:42:00,
2012-08-07 07:47:00,58.4,47.1,29.92,SSW,198,0.0,0.0,66,0.00,,---,0.00,VWS V14.01,2012-08-07 13:47:00,
2012-08-07 07:52:00,58.6,48.1,29.92,SSW,198,0.0,1.0,68,0.00,,---,0.00,VWS V14.01,2012-08-07 13:52:00,
2012-08-07 07:57:00,58.6,48.5,29.92,SSW,198,1.0,1.0,69,0.00,,---,0.00,VWS V14.01,2012-08-07 13:57:00,
2012-08-07 08:02:00,58.2,48.1,29.92,SSW,198,0.0,1.0,69,0.00,,---,0.00,VWS V14.01,2012-08-07 14:02:00,
2012-08-07 08:07:00,58.0,47.9,29.93,SSW,198,0.0,1.0,69,0.00,,---,0.00,VWS V14.01,2012-08-07 14:07:00,
2012-08-07 08:12:00,57.8,47.7,29.93,SSW,198,0.0,1.0,69,0.00,,---,0.00,VWS V14.01,2012-08-07 14:12:00,
2012-08-07 08:17:00,57.8,47.7,29.93,SSW,198,0.0,0.0,69,0.00,,---,0.00,VWS V14.01,2012-08-07 14:17:00,
2012-08-07 08:22:00,58.0,47.9,29.93,SSW,198,0.0,0.0,69,0.00,,---,0.00,VWS V14.01,2012-08-07 14:22:00,
2012-08-07 08:27:00,58.4,47.9,29.93,SSW,198,0.0,0.0,68,0.00,,---,0.00,VWS V14.01,2012-08-07 14:27:00,
2012-08-07 08:32:00,59.0,47.7,29.91,SSW,198,0.0,0.0,66,0.00,,---,0.00,VWS V14.01,2012-08-07 14:32:00,
2012-08-07 08:37:00,60.0,48.6,29.91,SSW,198,0.0,0.0,66,0.00,,---,0.00,VWS V14.01,2012-08-07 14:37:00,
2012-08-07 08:42:00,60.7,48.5,29.90,SSW,198,0.0,1.0,64,0.00,,---,0.00,VWS V14.01,2012-08-07 14:42:00,
2012-08-07 08:47:00,61.4,47.8,29.90,SSW,198,0.0,2.0,61,0.00,,---,0.00,VWS V14.01,2012-08-07 14:47:00,
2012-08-07 08:52:00,62.1,48.5,29.90,SSW,198,0.0,1.0,61,0.00,,---,0.00,VWS V14.01,2012-08-07 14:52:00,
2012-08-07 08:57:00,63.2,48.2,29.89,SSW,198,0.0,1.0,58,0.00,,---,0.00,VWS V14.01,2012-08-07 14:57:00,
2012-08-07 09:02:00,64.3,46.8,29.88,SSW,198,0.0,2.0,53,0.00,,---,0.00,VWS V14.01,2012-08-07 15:02:00,
2012-08-07 09:08:00,65.0,46.5,29.89,SSW,198,0.0,1.0,51,0.00,,---,0.00,VWS V14.01,2012-08-07 15:08:00,
2012-08-07 09:13:00,66.0,47.4,29.89,SSW,198,0.0,0.0,51,0.00,,---,0.00,VWS V14.01,2012-08-07 15:13:00,
2012-08-07 09:18:00,67.0,47.2,29.87,SSW,198,0.0,1.0,49,0.00,,---,0.00,VWS V14.01,2012-08-07 15:18:00,
2012-08-07 09:23:00,67.7,47.3,29.87,SSW,198,0.0,1.0,48,0.00,,---,0.00,VWS V14.01,2012-08-07 15:23:00,
2012-08-07 09:28:00,69.0,47.4,29.85,SE,146,0.0,3.0,46,0.00,,---,0.00,VWS V14.01,2012-08-07 15:28:00,
2012-08-07 09:33:00,70.3,47.4,29.85,SE,146,0.0,1.0,44,0.00,,---,0.00,VWS V14.01,2012-08-07 15:33:00,
2012-08-07 09:38:00,71.3,47.7,29.84,SE,145,0.0,1.0,43,0.00,,---,0.00,VWS V14.01,2012-08-07 15:38:00,
2012-08-07 09:43:00,70.8,46.6,29.84,SE,146,0.0,2.0,42,0.00,,---,0.00,VWS V14.01,2012-08-07 15:43:00,
2012-08-07 09:48:00,70.6,46.4,29.83,SSE,155,0.0,2.0,42,0.00,,---,0.00,VWS V14.01,2012-08-07 15:48:00,
2012-08-07 09:53:00,70.5,46.3,29.83,SSE,163,0.0,3.0,42,0.00,,---,0.00,VWS V14.01,2012-08-07 15:53:00,
2012-08-07 09:58:00,70.8,46.0,29.83,SSE,163,0.0,2.0,41,0.00,,---,0.00,VWS V14.01,2012-08-07 15:58:00,
2012-08-07 10:03:00,71.6,46.7,29.83,SSE,163,0.0,4.0,41,0.00,,---,0.00,VWS V14.01,2012-08-07 16:03:00,
2012-08-07 10:08:00,73.2,47.5,29.83,SSE,163,0.0,1.0,40,0.00,,---,0.00,VWS V14.01,2012-08-07 16:08:00,
2012-08-07 10:13:00,73.8,46.6,29.83,SSE,164,1.0,4.0,38,0.00,,---,0.00,VWS V14.01,2012-08-07 16:13:00,
2012-08-07 10:18:00,73.2,46.1,29.82,SSE,164,0.0,3.0,38,0.00,,---,0.00,VWS V14.01,2012-08-07 16:18:00,
2012-08-07 10:23:00,73.4,45.6,29.83,SSE,165,0.0,4.0,37,0.00,,---,0.00,VWS V14.01,2012-08-07 16:23:00,
2012-08-07 10:28:00,73.6,45.8,29.82,SSE,165,1.0,2.0,37,0.00,,---,0.00,VWS V14.01,2012-08-07 16:28:00,
2012-08-07 10:33:00,74.8,46.1,29.81,SSE,165,0.0,2.0,36,0.00,,---,0.00,VWS V14.01,2012-08-07 16:33:00,
2012-08-07 10:38:00,75.4,46.6,29.81,South,169,0.0,4.0,36,0.00,,---,0.00,VWS V14.01,2012-08-07 16:38:00,
2012-08-07 10:43:00,75.2,46.4,29.81,SSW,202,0.0,0.0,36,0.00,,---,0.00,VWS V14.01,2012-08-07 16:43:00,
2012-08-07 10:48:00,74.8,46.8,29.81,SSW,211,2.0,4.0,37,0.00,,---,0.00,VWS V14.01,2012-08-07 16:48:00,
2012-08-07 10:53:00,75.1,47.1,29.81,SSW,211,4.0,5.0,37,0.00,,---,0.00,VWS V14.01,2012-08-07 16:53:00,
2012-08-07 10:58:00,75.4,47.3,29.81,SW,222,1.0,2.0,37,0.00,,---,0.00,VWS V14.01,2012-08-07 16:58:00,
2012-08-07 11:03:00,76.5,46.1,29.81,East,98,5.0,5.0,34,0.00,,---,0.00,VWS V14.01,2012-08-07 17:03:00,
2012-08-07 11:08:00,77.5,47.0,29.80,North,349,3.0,3.0,34,0.00,,---,0.00,VWS V14.01,2012-08-07 17:08:00,
2012-08-07 11:13:00,77.3,45.2,29.80,SW,234,5.0,6.0,32,0.00,,---,0.00,VWS V14.01,2012-08-07 17:13:00,
2012-08-07 11:18:00,77.3,45.2,29.80,SW,234,5.0,5.0,32,0.00,,---,0.00,VWS V14.01,2012-08-07 17:18:00,
2012-08-07 11:23:00,77.4,43.6,29.80,West,271,0.0,1.0,30,0.00,,---,0.00,VWS V14.01,2012-08-07 17:23:00,
2012-08-07 11:28:00,77.5,43.7,29.80,West,271,1.0,2.0,30,0.00,,---,0.00,VWS V14.01,2012-08-07 17:28:00,
2012-08-07 11:33:00,78.2,44.3,29.80,West,275,3.0,4.0,30,0.00,,---,0.00,VWS V14.01,2012-08-07 17:33:00,
2012-08-07 11:38:00,78.7,43.8,29.78,West,275,1.0,1.0,29,0.00,,---,0.00,VWS V14.01,2012-08-07 17:38:00,
2012-08-07 11:43:00,79.3,44.3,29.78,West,279,0.0,1.0,29,0.00,,---,0.00,VWS V14.01,2012-08-07 17:43:00,
2012-08-07 11:48:00,79.2,43.3,29.79,West,279,8.0,8.0,28,0.00,,---,0.00,VWS V14.01,2012-08-07 17:48:00,
2012-08-07 11:53:00,78.0,42.3,29.80,West,279,4.0,7.0,28,0.00,,---,0.00,VWS V14.01,2012-08-07 17:53:00,
2012-08-07 11:58:00,77.7,42.9,29.80,West,279,3.0,3.0,29,0.00,,---,0.00,VWS V14.01,2012-08-07 17:58:00,
2012-08-07 12:03:00,77.9,42.2,29.80,West,279,0.0,1.0,28,0.00,,---,0.00,VWS V14.01,2012-08-07 18:03:00,
2012-08-07 12:08:00,78.6,42.8,29.80,West,279,0.0,1.0,28,0.00,,---,0.00,VWS V14.01,2012-08-07 18:08:00,
2012-08-07 12:13:00,79.2,44.2,29.79,West,279,1.0,1.0,29,0.00,,---,0.00,VWS V14.01,2012-08-07 18:13:00,
2012-08-07 12:18:00,80.2,43.2,29.77,West,279,5.0,5.0,27,0.00,,---,0.00,VWS V14.01,2012-08-07 18:18:00,
2012-08-07 12:23:00,79.9,43.0,29.77,West,281,3.0,3.0,27,0.00,,---,0.00,VWS V14.01,2012-08-07 18:23:00,
2012-08-07 12:28:00,80.4,42.4,29.77,WNW,303,5.0,9.0,26,0.00,,---,0.00,VWS V14.01,2012-08-07 18:28:00,
2012-08-07 12:33:00,79.9,43.0,29.77,WNW,300,5.0,6.0,27,0.00,,---,0.00,VWS V14.01,2012-08-07 18:33:00,
2012-08-07 12:38:00,79.6,42.7,29.77,WNW,299,0.0,0.0,27,0.00,,---,0.00,VWS V14.01,2012-08-07 18:38:00,
2012-08-07 12:43:00,80.5,42.5,29.77,NW,310,0.0,6.0,26,0.00,,---,0.00,VWS V14.01,2012-08-07 18:43:00,
2012-08-07 12:48:00,81.1,44.0,29.76,NW,310,0.0,1.0,27,0.00,,---,0.00,VWS V14.01,2012-08-07 18:48:00,
2012-08-07 12:53:00,82.3,44.0,29.74,NE,38,1.0,6.0,26,0.00,,---,0.00,VWS V14.01,2012-08-07 18:53:00,
2012-08-07 12:58:00,82.1,42.8,29.75,North,5,2.0,2.0,25,0.00,,---,0.00,VWS V14.01,2012-08-07 18:58:00,
2012-08-07 13:03:00,80.9,42.8,29.76,North,349,0.0,2.0,26,0.00,,---,0.00,VWS V14.01,2012-08-07 19:03:00,
2012-08-07 13:08:00,81.7,43.5,29.75,North,350,2.0,2.0,26,0.00,,---,0.00,VWS V14.01,2012-08-07 19:08:00,
2012-08-07 13:13:00,82.1,42.8,29.75,NNE,28,0.0,4.0,25,0.00,,---,0.00,VWS V14.01,2012-08-07 19:13:00,
2012-08-07 13:18:00,81.5,42.3,29.75,West,281,1.0,8.0,25,0.00,,---,0.00,VWS V14.01,2012-08-07 19:18:00,
2012-08-07 13:23:00,81.4,43.3,29.75,WNW,290,5.0,6.0,26,0.00,,---,0.00,VWS V14.01,2012-08-07 19:23:00,
2012-08-07 13:28:00,81.3,43.2,29.75,WNW,290,0.0,0.0,26,0.00,,---,0.00,VWS V14.01,2012-08-07 19:28:00,
2012-08-07 13:33:00,81.6,43.4,29.75,WNW,290,3.0,3.0,26,0.00,,---,0.00,VWS V14.01,2012-08-07 19:33:00,
2012-08-07 13:38:00,81.5,43.3,29.74,WNW,290,2.0,5.0,26,0.00,,---,0.00,VWS V14.01,2012-08-07 19:38:00,
2012-08-07 13:43:00,81.8,43.6,29.74,WNW,290,3.0,8.0,26,0.00,,---,0.00,VWS V14.01,2012-08-07 19:43:00,
2012-08-07 13:48:00,82.0,42.8,29.75,WNW,290,6.0,8.0,25,0.00,,---,0.00,VWS V14.01,2012-08-07 19:48:00,
2012-08-07 13:53:00,82.2,44.9,29.73,WNW,290,0.0,1.0,27,0.00,,---,0.00,VWS V14.01,2012-08-07 19:53:00,
2012-08-07 13:58:00,82.9,44.5,29.72,West,262,5.0,6.0,26,0.00,,---,0.00,VWS V14.01,2012-08-07 19:58:00,
2012-08-07 14:03:00,82.5,44.2,29.73,West,261,6.0,6.0,26,0.00,,---,0.00,VWS V14.01,2012-08-07 20:03:00,
2012-08-07 14:08:00,82.4,44.1,29.73,West,261,7.0,7.0,26,0.00,,---,0.00,VWS V14.01,2012-08-07 20:08:00,
2012-08-07 14:13:00,82.9,44.5,29.73,West,264,2.0,6.0,26,0.00,,---,0.00,VWS V14.01,2012-08-07 20:13:00,
2012-08-07 14:18:00,82.4,43.1,29.73,West,275,4.0,5.0,25,0.00,,---,0.00,VWS V14.01,2012-08-07 20:18:00,
2012-08-07 14:23:00,82.2,43.9,29.72,West,275,0.0,4.0,26,0.00,,---,0.00,VWS V14.01,2012-08-07 20:23:00,
2012-08-07 14:28:00,82.4,45.1,29.72,WSW,238,2.0,10.0,27,0.00,,---,0.00,VWS V14.01,2012-08-07 20:28:00,
2012-08-07 14:33:00,82.3,46.0,29.72,SW,225,2.0,11.0,28,0.00,,---,0.00,VWS V14.01,2012-08-07 20:33:00,
2012-08-07 14:39:00,81.8,44.6,29.72,SSW,207,1.0,9.0,27,0.00,,---,0.00,VWS V14.01,2012-08-07 20:39:00,
2012-08-07 14:44:00,80.4,46.2,29.73,SSW,198,5.0,12.0,30,0.00,,---,0.00,VWS V14.01,2012-08-07 20:44:00,
2012-08-07 14:49:00,79.3,46.9,29.75,South,187,10.0,10.0,32,0.00,,---,0.00,VWS V14.01,2012-08-07 20:49:00,
2012-08-07 14:54:00,78.3,46.0,29.76,SSE,153,2.0,15.0,32,0.00,,---,0.00,VWS V14.01,2012-08-07 20:54:00,
2012-08-07 14:59:00,77.4,44.4,29.76,SSE,153,9.0,9.0,31,0.00,,---,0.00,VWS V14.01,2012-08-07 20:59:00,
2012-08-07 15:04:00,76.9,44.8,29.80,SE,125,2.0,7.0,32,0.00,,---,0.00,VWS V14.01,2012-08-07 21:04:00,
2012-08-07 15:09:00,76.3,45.1,29.80,SSE,154,0.0,5.0,33,0.00,,---,0.00,VWS V14.01,2012-08-07 21:09:00,
2012-08-07 15:14:00,75.7,45.4,29.82,SE,126,0.0,1.0,34,0.00,,---,0.00,VWS V14.01,2012-08-07 21:14:00,
2012-08-07 15:19:00,75.3,45.8,29.83,ESE,123,4.0,9.0,35,0.00,,---,0.00,VWS V14.01,2012-08-07 21:19:00,
2012-08-07 15:24:00,73.4,48.3,29.85,SE,143,1.0,6.0,41,0.00,,---,0.00,VWS V14.01,2012-08-07 21:24:00,
2012-08-07 15:29:00,71.0,52.5,29.87,SE,135,3.0,4.0,52,0.00,,---,0.00,VWS V14.01,2012-08-07 21:29:00,
2012-08-07 15:34:00,67.8,53.4,29.89,NE,45,11.0,12.0,60,0.00,,---,0.00,VWS V14.01,2012-08-07 21:34:00,
2012-08-07 15:39:00,66.1,53.6,29.92,NE,40,4.0,6.0,64,0.00,,---,0.00,VWS V14.01,2012-08-07 21:39:00,
2012-08-07 15:44:00,65.3,50.2,29.95,NW,319,9.0,16.0,58,0.00,,---,0.00,VWS V14.01,2012-08-07 21:44:00,
2012-08-07 15:49:00,64.2,50.9,29.98,North,355,6.0,6.0,62,0.00,,---,0.00,VWS V14.01,2012-08-07 21:49:00,
2012-08-07 15:54:00,63.8,51.0,29.99,NNW,335,4.0,4.0,63,0.01,,---,0.01,VWS V14.01,2012-08-07 21:54:00,
2012-08-07 15:59:00,63.6,50.4,29.99,NE,44,5.0,8.0,62,0.01,,---,0.01,VWS V14.01,2012-08-07 21:59:00,
2012-08-07 16:04:00,62.9,52.6,30.00,NE,46,0.0,0.0,69,0.02,,---,0.02,VWS V14.01,2012-08-07 22:04:00,
2012-08-07 16:09:00,62.5,53.0,30.00,NE,45,0.0,0.0,71,0.02,,---,0.02,VWS V14.01,2012-08-07 22:09:00,
2012-08-07 16:14:00,62.3,53.2,30.02,NE,46,1.0,1.0,72,0.02,,---,0.02,VWS V14.01,2012-08-07 22:14:00,
2012-08-07 16:19:00,61.4,51.9,30.04,NE,52,3.0,5.0,71,0.02,,---,0.02,VWS V14.01,2012-08-07 22:19:00,
2012-08-07 16:24:00,60.7,53.1,30.03,NE,53,1.0,1.0,76,0.03,,---,0.03,VWS V14.01,2012-08-07 22:24:00,
2012-08-07 16:29:00,60.2,53.0,30.03,NE,53,0.0,1.0,77,0.03,,---,0.03,VWS V14.01,2012-08-07 22:29:00,
2012-08-07 16:34:00,59.8,52.9,30.03,NE,53,0.0,1.0,78,0.04,,---,0.04,VWS V14.01,2012-08-07 22:34:00,
2012-08-07 16:39:00,59.8,54.0,30.03,NE,53,0.0,0.0,81,0.04,,---,0.04,VWS V14.01,2012-08-07 22:39:00,
2012-08-07 16:44:00,60.1,54.9,30.02,ENE,72,0.0,0.0,83,0.04,,---,0.04,VWS V14.01,2012-08-07 22:44:00,
2012-08-07 16:49:00,60.1,53.9,30.01,SSE,168,0.0,1.0,80,0.05,,---,0.05,VWS V14.01,2012-08-07 22:49:00,
2012-08-07 16:54:00,60.3,54.1,30.00,South,169,1.0,1.0,80,0.04,,---,0.05,VWS V14.01,2012-08-07 22:54:00,
2012-08-07 16:59:00,60.7,53.8,29.99,SSE,150,0.0,1.0,78,0.05,,---,0.06,VWS V14.01,2012-08-07 22:59:00,
2012-08-07 17:04:00,61.5,53.9,30.00,SSW,195,8.0,10.0,76,0.04,,---,0.06,VWS V14.01,2012-08-07 23:04:00,
2012-08-07 17:09:00,61.8,52.7,29.99,SW,216,5.0,18.0,72,0.04,,---,0.06,VWS V14.01,2012-08-07 23:09:00,
2012-08-07 17:14:00,62.4,53.3,29.99,SSW,207,7.0,13.0,72,0.05,,---,0.07,VWS V14.01,2012-08-07 23:14:00,
2012-08-07 17:19:00,63.0,53.1,29.97,SSW,192,10.0,15.0,70,0.05,,---,0.07,VWS V14.01,2012-08-07 23:19:00,
2012-08-07 17:24:00,63.0,52.7,29.97,SSW,192,5.0,11.0,69,0.05,,---,0.08,VWS V14.01,2012-08-07 23:24:00,
2012-08-07 17:29:00,63.3,53.0,29.97,SSW,200,3.0,9.0,69,0.05,,---,0.08,VWS V14.01,2012-08-07 23:29:00,
2012-08-07 17:34:00,64.0,53.2,29.97,South,191,4.0,5.0,68,0.04,,---,0.08,VWS V14.01,2012-08-07 23:34:00,
2012-08-07 17:39:00,64.9,53.3,29.96,SSW,194,0.0,5.0,66,0.04,,---,0.08,VWS V14.01,2012-08-07 23:39:00,
2012-08-07 17:44:00,65.7,52.8,29.97,SW,218,5.0,10.0,63,0.05,,---,0.09,VWS V14.01,2012-08-07 23:44:00,
2012-08-07 17:49:00,66.1,52.3,29.97,South,190,7.0,8.0,61,0.05,,---,0.09,VWS V14.01,2012-08-07 23:49:00,
2012-08-07 17:54:00,66.1,52.7,29.96,South,190,0.0,4.0,62,0.05,,---,0.10,VWS V14.01,2012-08-07 23:54:00,
2012-08-07 17:59:00,66.4,53.0,29.96,South,190,7.0,7.0,62,0.04,,---,0.10,VWS V14.01,2012-08-07 23:59:00,
2012-08-07 18:04:00,67.2,52.4,29.95,South,190,1.0,8.0,59,0.04,,---,0.10,VWS V14.01,2012-08-08 00:04:00,
2012-08-07 18:09:00,68.0,52.2,29.94,SSW,192,0.0,9.0,57,0.04,,---,0.10,VWS V14.01,2012-08-08 00:09:00,
2012-08-07 18:14:00,68.1,51.3,29.95,SSW,197,0.0,9.0,55,0.03,,---,0.10,VWS V14.01,2012-08-08 00:14:00,
2012-08-07 18:19:00,67.5,51.3,29.94,SSW,196,0.0,1.0,56,0.04,,---,0.11,VWS V14.01,2012-08-08 00:19:00,
2012-08-07 18:24:00,66.7,51.5,29.96,SSW,197,0.0,1.0,58,0.03,,---,0.11,VWS V14.01,2012-08-08 00:24:00,
2012-08-07 18:29:00,66.2,51.0,29.96,SSW,197,0.0,1.0,58,0.03,,---,0.11,VWS V14.01,2012-08-08 00:29:00,
2012-08-07 18:34:00,66.0,51.3,29.96,SSW,196,0.0,0.0,59,0.04,,---,0.12,VWS V14.01,2012-08-08 00:34:00,
2012-08-07 18:39:00,65.7,51.5,29.96,SSW,197,0.0,0.0,60,0.04,,---,0.12,VWS V14.01,2012-08-08 00:39:00,
2012-08-07 18:44:00,65.6,51.4,29.97,SSW,196,0.0,0.0,60,0.03,,---,0.12,VWS V14.01,2012-08-08 00:44:00,
2012-08-07 18:49:00,65.5,51.7,29.96,SSW,197,0.0,0.0,61,0.03,,---,0.12,VWS V14.01,2012-08-08 00:49:00,
2012-08-07 18:54:00,65.3,51.5,29.98,SSW,197,0.0,0.0,61,0.03,,---,0.12,VWS V14.01,2012-08-08 00:54:00,
2012-08-07 18:59:00,65.1,51.3,29.97,SSW,197,0.0,0.0,61,0.02,,---,0.12,VWS V14.01,2012-08-08 00:59:00,
2012-08-07 19:04:00,65.0,51.7,29.95,SSW,196,0.0,0.0,62,0.03,,---,0.13,VWS V14.01,2012-08-08 01:04:00,
2012-08-07 19:09:00,65.0,50.8,29.96,SSW,196,0.0,0.0,60,0.03,,---,0.13,VWS V14.01,2012-08-08 01:09:00,
2012-08-07 19:14:00,64.9,50.7,29.96,SSW,196,0.0,0.0,60,0.03,,---,0.13,VWS V14.01,2012-08-08 01:14:00,
2012-08-07 19:19:00,65.0,50.3,29.96,SSW,197,0.0,0.0,59,0.02,,---,0.13,VWS V14.01,2012-08-08 01:19:00,
2012-08-07 19:24:00,65.1,50.9,29.97,SSW,196,0.0,0.0,60,0.02,,---,0.13,VWS V14.01,2012-08-08 01:24:00,
2012-08-07 19:29:00,65.1,51.3,29.97,SSW,197,0.0,0.0,61,0.03,,---,0.14,VWS V14.01,2012-08-08 01:29:00,
2012-08-07 19:34:00,65.0,52.1,29.98,WNW,303,2.0,9.0,63,0.02,,---,0.14,VWS V14.01,2012-08-08 01:34:00,
2012-08-07 19:40:00,64.7,51.4,29.97,WSW,258,0.0,8.0,62,0.02,,---,0.14,VWS V14.01,2012-08-08 01:40:00,
2012-08-07 19:45:00,65.1,50.0,29.96,WSW,254,0.0,7.0,58,0.02,,---,0.14,VWS V14.01,2012-08-08 01:45:00,
2012-08-07 19:50:00,65.2,50.1,29.96,WSW,255,1.0,4.0,58,0.02,,---,0.14,VWS V14.01,2012-08-08 01:50:00,
2012-08-07 19:55:00,65.0,50.8,29.96,WSW,254,0.0,3.0,60,0.02,,---,0.14,VWS V14.01,2012-08-08 01:55:00,
2012-08-07 20:00:00,64.9,50.7,29.97,WSW,255,0.0,0.0,60,0.02,,---,0.14,VWS V14.01,2012-08-08 02:00:00,
2012-08-07 20:05:00,64.6,50.9,29.92,WSW,255,1.0,1.0,61,0.02,,---,0.14,VWS V14.01,2012-08-08 02:05:00,
2012-08-07 20:10:00,64.4,50.7,29.92,WSW,254,0.0,1.0,61,0.01,,---,0.14,VWS V14.01,2012-08-08 02:10:00,
2012-08-07 20:15:00,64.2,51.8,29.92,WSW,255,0.0,0.0,64,0.01,,---,0.14,VWS V14.01,2012-08-08 02:15:00,
2012-08-07 20:20:00,64.0,52.0,29.92,WSW,255,0.0,1.0,65,0.01,,---,0.14,VWS V14.01,2012-08-08 02:20:00,
2012-08-07 20:25:00,63.8,52.2,29.91,WSW,254,0.0,1.0,66,0.01,,---,0.14,VWS V14.01,2012-08-08 02:25:00,
2012-08-07 20:30:00,63.6,52.0,29.92,WSW,255,0.0,2.0,66,0.01,,---,0.14,VWS V14.01,2012-08-08 02:30:00,
2012-08-07 20:35:00,63.4,52.3,29.93,WSW,254,0.0,0.0,67,0.00,,---,0.14,VWS V14.01,2012-08-08 02:35:00,
2012-08-07 20:40:00,63.2,52.1,29.93,SW,229,0.0,1.0,67,0.00,,---,0.14,VWS V14.01,2012-08-08 02:40:00,
2012-08-07 20:45:00,63.1,52.0,29.93,SW,229,0.0,0.0,67,0.00,,---,0.14,VWS V14.01,2012-08-08 02:45:00,
2012-08-07 20:50:00,63.0,52.3,29.93,SW,229,0.0,0.0,68,0.00,,---,0.14,VWS V14.01,2012-08-08 02:50:00,
2012-08-07 20:55:00,62.8,52.1,29.93,SW,229,0.0,0.0,68,0.00,,---,0.14,VWS V14.01,2012-08-08 02:55:00,
2012-08-07 21:00:00,62.5,52.2,29.93,SW,229,0.0,0.0,69,0.00,,---,0.14,VWS V14.01,2012-08-08 03:00:00,
2012-08-07 21:05:00,62.1,51.4,29.88,SW,229,0.0,1.0,68,0.00,,---,0.14,VWS V14.01,2012-08-08 03:05:00,
2012-08-07 21:10:00,61.7,51.4,29.88,SW,229,2.0,5.0,69,0.00,,---,0.14,VWS V14.01,2012-08-08 03:10:00,
2012-08-07 21:15:00,61.1,51.2,29.90,SW,229,3.0,4.0,70,0.00,,---,0.14,VWS V14.01,2012-08-08 03:15:00,
2012-08-07 21:20:00,60.3,50.9,29.90,SW,227,0.0,5.0,71,0.00,,---,0.14,VWS V14.01,2012-08-08 03:20:00,
2012-08-07 21:25:00,59.4,50.8,29.92,SW,227,0.0,5.0,73,0.00,,---,0.14,VWS V14.01,2012-08-08 03:25:00,
2012-08-07 21:30:00,59.0,50.7,29.92,SW,227,0.0,1.0,74,0.00,,---,0.14,VWS V14.01,2012-08-08 03:30:00,
2012-08-07 21:35:00,58.5,50.6,29.92,SW,227,5.0,5.0,75,0.00,,---,0.14,VWS V14.01,2012-08-08 03:35:00,
2012-08-07 21:40:00,58.4,50.5,29.92,SW,227,1.0,1.0,75,0.00,,---,0.14,VWS V14.01,2012-08-08 03:40:00,
2012-08-07 21:45:00,58.5,50.6,29.92,SW,227,0.0,4.0,75,0.00,,---,0.14,VWS V14.01,2012-08-08 03:45:00,
2012-08-07 21:50:00,58.7,50.5,29.92,SW,227,1.0,4.0,74,0.00,,---,0.14,VWS V14.01,2012-08-08 03:50:00,
2012-08-07 21:55:00,58.9,50.6,29.92,SW,227,0.0,1.0,74,0.00,,---,0.14,VWS V14.01,2012-08-08 03:55:00,
2012-08-07 22:00:00,58.7,50.5,29.92,SW,227,0.0,0.0,74,0.00,,---,0.14,VWS V14.01,2012-08-08 04:00:00,
2012-08-07 22:05:00,58.4,50.5,29.89,SW,227,0.0,4.0,75,0.00,,---,0.14,VWS V14.01,2012-08-08 04:05:00,
2012-08-07 22:10:00,58.1,50.6,29.89,SW,227,0.0,0.0,76,0.00,,---,0.14,VWS V14.01,2012-08-08 04:10:00,
2012-08-07 22:15:00,57.7,50.2,29.89,SW,227,1.0,2.0,76,0.00,,---,0.14,VWS V14.01,2012-08-08 04:15:00,
2012-08-07 22:20:00,57.4,49.9,29.89,SW,227,0.0,2.0,76,0.00,,---,0.14,VWS V14.01,2012-08-08 04:20:00,
2012-08-07 22:25:00,57.1,49.6,29.89,SW,227,0.0,0.0,76,0.00,,---,0.14,VWS V14.01,2012-08-08 04:25:00,
2012-08-07 22:30:00,56.8,49.3,29.89,SW,227,0.0,0.0,76,0.00,,---,0.14,VWS V14.01,2012-08-08 04:30:00,
2012-08-07 22:36:00,56.6,49.5,29.90,SW,227,0.0,0.0,77,0.00,,---,0.14,VWS V14.01,2012-08-08 04:36:00,
2012-08-07 22:41:00,56.4,49.3,29.92,SW,227,0.0,0.0,77,0.00,,---,0.14,VWS V14.01,2012-08-08 04:41:00,
2012-08-07 22:46:00,56.3,49.5,29.92,SW,227,0.0,0.0,78,0.00,,---,0.14,VWS V14.01,2012-08-08 04:46:00,
2012-08-07 22:51:00,56.1,49.3,29.91,SW,227,0.0,0.0,78,0.00,,---,0.14,VWS V14.01,2012-08-08 04:51:00,
2012-08-07 22:56:00,56.1,49.3,29.91,SW,227,0.0,0.0,78,0.00,,---,0.14,VWS V14.01,2012-08-08 04:56:00,